Time;durP1;ratioP1;P1;durP2;ratioP2;P2;SDS_P1;SDS_P2;PMS_P1;PMS_P2;Temp;Humidity;BMP_temperature;BMP_pressure;BME280_temperature;BME280_humidity;BME280_pressure;Samples;Min_cycle;Max_cycle;Signal;HPM_P1;HPM_P2
2021/12/22 00:01:24;;;;;;;15.77;5.57;;;;;;;-8.02;58.93;101389.58;126331;1099;104143;-79
2021/12/22 00:03:53;;;;;;;14.93;5.67;;;;;;;-8.05;59.26;101397.75;126339;1099;104146;-79
2021/12/22 00:06:26;;;;;;;14.43;5.50;;;;;;;-8.05;57.74;101401.94;126353;1099;104143;-79
2021/12/22 00:08:54;;;;;;;17.20;5.90;;;;;;;-8.03;59.45;101400.48;126273;1099;104201;-79
2021/12/22 00:11:23;;;;;;;13.57;5.20;;;;;;;-8.03;58.65;101406.48;126364;1099;104140;-79
2021/12/22 00:13:52;;;;;;;16.47;5.90;;;;;;;-8.05;58.04;101410.48;126305;1099;104146;-79
2021/12/22 00:16:20;;;;;;;12.57;4.60;;;;;;;-8.06;59.32;101408.65;126358;1099;104185;-79
2021/12/22 00:18:49;;;;;;;12.93;4.37;;;;;;;-8.06;58.51;101412.84;126307;1099;104271;-79
2021/12/22 00:21:17;;;;;;;16.03;4.77;;;;;;;-8.06;59.42;101416.29;126287;1099;104153;-79
2021/12/22 00:23:47;;;;;;;14.33;4.90;;;;;;;-8.04;58.68;101421.58;125334;1099;104166;-79
2021/12/22 00:26:16;;;;;;;15.63;4.80;;;;;;;-8.03;59.29;101420.86;126283;1099;104165;-79
2021/12/22 00:28:46;;;;;;;13.80;5.10;;;;;;;-8.03;59.48;101429.41;126252;1099;104145;-79
2021/12/22 00:31:18;;;;;;;10.57;4.10;;;;;;;-8.03;58.91;101421.77;126317;1099;104297;-79
2021/12/22 00:33:51;;;;;;;12.43;4.83;;;;;;;-8.00;58.65;101427.23;126265;1099;104188;-79
2021/12/22 00:36:21;;;;;;;10.77;4.33;;;;;;;-8.01;58.01;101425.44;126361;1099;104264;-79
2021/12/22 00:38:51;;;;;;;15.07;5.20;;;;;;;-7.98;58.92;101432.52;126274;1099;104181;-79
2021/12/22 00:41:20;;;;;;;12.20;4.40;;;;;;;-7.97;58.44;101425.07;126326;1098;104156;-79
2021/12/22 00:43:50;;;;;;;13.17;4.57;;;;;;;-7.97;59.62;101432.71;126323;1099;104473;-78
2021/12/22 00:46:19;;;;;;;18.50;5.17;;;;;;;-7.95;59.05;101426.19;126296;1099;104229;-78
2021/12/22 00:48:50;;;;;;;15.43;4.70;;;;;;;-7.91;58.95;101427.47;126302;1099;104274;-78
2021/12/22 00:51:21;;;;;;;15.57;4.87;;;;;;;-7.91;58.04;101419.83;126260;1099;104198;-79
2021/12/22 00:53:50;;;;;;;15.27;4.67;;;;;;;-7.90;59.60;101425.83;126286;1099;104240;-79
2021/12/22 00:56:21;;;;;;;15.70;5.00;;;;;;;-7.89;59.60;101414.92;126312;1099;104139;-79
2021/12/22 00:58:53;;;;;;;13.53;5.30;;;;;;;-7.88;59.64;101416.72;126263;1098;104146;-79
2021/12/22 01:01:21;;;;;;;17.00;4.97;;;;;;;-7.87;58.70;101405.82;126324;1098;104178;-79
2021/12/22 01:03:53;;;;;;;16.03;5.33;;;;;;;-7.88;59.54;101406.53;126292;1099;104146;-78
2021/12/22 01:06:23;;;;;;;13.27;4.70;;;;;;;-7.86;59.69;101407.66;126329;1099;104593;-79
2021/12/22 01:08:52;;;;;;;22.40;6.03;;;;;;;-7.82;59.49;101399.64;126294;1099;104315;-79
2021/12/22 01:11:21;;;;;;;16.60;6.05;;;;;;;-7.80;58.87;101396.57;126255;1099;107167;-79
2021/12/22 01:13:49;;;;;;;13.20;5.00;;;;;;;-7.76;58.88;101392.75;126302;1099;104147;-79
2021/12/22 01:16:18;;;;;;;18.95;5.30;;;;;;;-7.72;59.93;101397.50;126278;1099;104325;-79
2021/12/22 01:18:47;;;;;;;17.60;5.73;;;;;;;-7.70;59.11;101393.50;126347;1099;104200;-79
2021/12/22 01:21:21;;;;;;;17.03;6.57;;;;;;;-7.67;59.19;101398.07;126235;1099;104188;-79
2021/12/22 01:24:01;;;;;;;18.10;5.83;;;;;;;-7.65;59.20;101392.45;126292;1099;104283;-79
2021/12/22 01:26:33;;;;;;;17.17;6.13;;;;;;;-7.63;58.44;101390.98;126288;1099;104147;-79
2021/12/22 01:29:03;;;;;;;19.50;6.65;;;;;;;-7.62;58.81;101395.37;126317;1099;104325;-78
2021/12/22 01:31:32;;;;;;;18.70;6.17;;;;;;;-7.61;59.33;101403.91;126242;1099;104150;-78
2021/12/22 01:34:06;;;;;;;17.53;5.87;;;;;;;-7.64;58.31;101401.89;126300;1099;104342;-79
2021/12/22 01:36:39;;;;;;;16.37;5.63;;;;;;;-7.65;59.03;101406.80;126276;1099;104245;-79
2021/12/22 01:39:11;;;;;;;24.97;9.03;;;;;;;-7.75;59.75;101403.88;126324;1099;104165;-79
2021/12/22 01:41:40;;;;;;;24.10;8.57;;;;;;;-7.86;58.94;101392.37;126281;1099;104268;-78
2021/12/22 01:44:13;;;;;;;26.10;9.17;;;;;;;-7.86;59.33;101384.73;126363;1099;104137;-79
2021/12/22 01:49:50;;;;;;;21.83;7.93;;;;;;;-7.85;59.65;101387.46;126318;1099;104285;-78
2021/12/22 01:52:20;;;;;;;18.47;6.07;;;;;;;-7.89;59.26;101390.34;126392;1099;104216;-78
2021/12/22 01:55:03;;;;;;;20.00;6.97;;;;;;;-7.99;59.83;101382.32;126347;1098;104180;-77
2021/12/22 01:57:33;;;;;;;17.07;6.40;;;;;;;-8.04;58.99;101378.27;126353;1099;104149;-78
2021/12/22 02:00:02;;;;;;;20.13;7.00;;;;;;;-8.03;59.68;101375.91;126359;1098;104310;-79
2021/12/22 02:02:31;;;;;;;18.47;6.43;;;;;;;-8.05;58.55;101382.47;126251;1099;108621;-78
2021/12/22 02:05:03;;;;;;;19.30;7.17;;;;;;;-8.07;60.08;101382.98;126342;1099;104197;-79
2021/12/22 02:07:34;;;;;;;18.73;6.67;;;;;;;-8.10;59.33;101381.00;126341;1099;104183;-79
2021/12/22 02:10:24;;;;;;;21.02;6.90;;;;;;;-8.07;60.13;101381.38;126312;1099;104191;-79
2021/12/22 02:12:54;;;;;;;18.87;7.00;;;;;;;-8.04;58.96;101374.11;126246;1099;117432;-78
2021/12/22 02:15:23;;;;;;;17.57;6.63;;;;;;;-8.00;59.48;101373.74;126326;1099;104178;-78
2021/12/22 02:17:56;;;;;;;23.40;6.97;;;;;;;-7.98;58.80;101373.93;126319;1099;104140;-78
2021/12/22 02:20:25;;;;;;;20.57;7.33;;;;;;;-7.94;59.21;101373.59;126265;1099;104162;-79
2021/12/22 02:22:58;;;;;;;16.83;6.97;;;;;;;-7.89;59.11;101369.06;126046;1099;104303;-79
2021/12/22 02:25:44;;;;;;;17.43;6.83;;;;;;;-7.87;59.58;101378.70;126351;1099;104325;-79
2021/12/22 02:28:18;;;;;;;17.77;6.53;;;;;;;-7.85;59.57;101384.91;126091;1099;103960;-79
2021/12/22 02:30:46;;;;;;;;;;;;;;;-7.85;58.93;101376.34;126068;1099;104245;-79
2021/12/22 02:33:23;;;;;;;20.33;6.57;;;;;;;-7.81;60.42;101373.45;126024;1099;104210;-79
2021/12/22 02:36:06;;;;;;;21.80;7.40;;;;;;;-7.78;58.83;101373.82;126155;1099;104274;-79
2021/12/22 02:38:37;;;;;;;18.87;7.13;;;;;;;-7.76;59.88;101372.36;126099;1099;104225;-79
2021/12/22 02:41:09;;;;;;;22.47;7.40;;;;;;;-7.74;59.65;101360.74;126131;1099;104153;-79
2021/12/22 02:43:44;;;;;;;19.60;6.40;;;;;;;-7.69;59.76;101362.20;126290;1099;104704;-79
2021/12/22 02:46:14;;;;;;;21.17;6.40;;;;;;;-7.66;59.84;101352.37;126361;1099;104310;-78
2021/12/22 02:48:43;;;;;;;20.30;7.43;;;;;;;-7.63;59.92;101355.30;126353;1099;104278;-79
2021/12/22 02:51:12;;;;;;;21.47;7.23;;;;;;;-7.60;59.84;101352.22;126318;1099;104277;-78
2021/12/22 02:53:44;;;;;;;20.97;6.83;;;;;;;-7.56;60.63;101345.84;126249;1099;107448;-79
2021/12/22 02:56:26;;;;;;;17.60;6.23;;;;;;;-7.53;59.57;101341.12;126340;1099;104344;-79
2021/12/22 02:59:02;;;;;;;21.07;6.67;;;;;;;-7.46;59.67;101343.69;126296;1099;104147;-78
2021/12/22 03:02:06;;;;;;;19.95;6.60;;;;;;;-7.42;59.54;101344.24;126323;1099;104278;-79
2021/12/22 03:04:44;;;;;;;16.90;5.90;;;;;;;-7.37;59.46;101344.76;126316;1098;117963;-78
2021/12/22 03:07:16;;;;;;;18.37;6.03;;;;;;;-7.29;60.29;101355.87;126316;1098;104146;-78
2021/12/22 03:09:53;;;;;;;17.20;6.30;;;;;;;-7.25;59.17;101352.98;126327;1099;104120;-78
2021/12/22 03:12:23;;;;;;;18.77;6.70;;;;;;;-7.21;60.14;101352.63;126264;1099;104274;-79
2021/12/22 03:14:51;;;;;;;18.37;6.20;;;;;;;-7.17;59.77;101359.00;126324;1099;104137;-79
2021/12/22 03:17:20;;;;;;;20.47;5.57;;;;;;;-7.13;59.28;101356.09;126332;1099;104393;-78
2021/12/22 03:19:48;;;;;;;20.83;6.20;;;;;;;-7.12;59.52;101351.17;126298;1098;104176;-78
2021/12/22 03:22:19;;;;;;;15.97;5.50;;;;;;;-7.13;59.50;101349.34;126324;1099;104149;-79
2021/12/22 03:24:50;;;;;;;17.93;5.77;;;;;;;-7.10;60.14;101356.46;126302;1099;104155;-78
2021/12/22 03:27:19;;;;;;;17.93;6.07;;;;;;;-7.11;59.09;101360.62;126315;1099;104294;-78
2021/12/22 03:29:48;;;;;;;18.13;5.63;;;;;;;-7.15;59.39;101362.63;126336;1099;104332;-78
2021/12/22 03:32:17;;;;;;;18.70;6.70;;;;;;;-7.18;59.52;101364.81;126255;1099;104221;-78
2021/12/22 03:34:45;;;;;;;17.67;6.40;;;;;;;-7.22;60.37;101367.00;126293;1099;104156;-78
2021/12/22 03:37:14;;;;;;;20.60;6.40;;;;;;;-7.30;59.92;101377.94;126319;1099;104751;-78
2021/12/22 03:39:42;;;;;;;19.77;7.13;;;;;;;-7.37;59.37;101377.01;126327;1099;104149;-78
2021/12/22 03:42:11;;;;;;;21.50;7.97;;;;;;;-7.46;59.23;101376.83;126336;1099;104156;-78
2021/12/22 03:44:40;;;;;;;19.40;7.17;;;;;;;-7.53;60.23;101376.80;126254;1099;104150;-78
2021/12/22 03:47:09;;;;;;;17.60;7.00;;;;;;;-7.60;60.07;101376.06;126313;1099;104175;-78
2021/12/22 03:49:38;;;;;;;19.87;7.00;;;;;;;-7.66;60.47;101377.86;126339;1099;104277;-78
2021/12/22 03:52:07;;;;;;;20.70;8.03;;;;;;;-7.69;60.07;101392.78;126326;1099;104146;-79
2021/12/22 03:54:36;;;;;;;22.00;7.17;;;;;;;-7.74;60.27;101391.32;126275;1099;104150;-78
2021/12/22 03:57:05;;;;;;;19.10;7.25;;;;;;;-7.75;61.16;101386.04;126324;1099;104277;-78
2021/12/22 03:59:36;;;;;;;22.07;7.27;;;;;;;-7.77;61.09;101389.30;126312;1099;104159;-78
2021/12/22 04:02:05;;;;;;;18.33;6.23;;;;;;;-7.75;60.31;101393.69;126286;1099;104217;-78
2021/12/22 04:04:33;;;;;;;19.07;7.03;;;;;;;-7.72;59.62;101391.52;126257;1099;104294;-79
2021/12/22 04:07:02;;;;;;;21.60;7.37;;;;;;;-7.67;61.23;101392.97;126351;1099;105054;-78
2021/12/22 04:09:30;;;;;;;19.43;7.50;;;;;;;-7.62;60.14;101396.98;126317;1099;104666;-78
2021/12/22 04:11:59;;;;;;;22.67;7.27;;;;;;;-7.57;60.69;101394.99;126321;1099;104201;-78
2021/12/22 04:14:27;;;;;;;17.13;6.90;;;;;;;-7.51;60.24;101390.64;126240;1099;104194;-78
2021/12/22 04:17:01;;;;;;;21.50;7.27;;;;;;;-7.46;59.73;101395.58;126319;1099;104143;-79
2021/12/22 04:19:31;;;;;;;22.60;8.40;;;;;;;-7.42;59.91;101400.34;126293;1099;104576;-79
2021/12/22 04:22:00;;;;;;;23.50;7.47;;;;;;;-7.35;60.42;101404.53;126315;1099;101845;-78
2021/12/22 04:24:28;;;;;;;21.70;8.40;;;;;;;-7.30;60.84;101397.44;126259;1099;104145;-78
2021/12/22 04:26:57;;;;;;;22.60;8.00;;;;;;;-7.24;59.95;101405.82;126307;1099;104296;-78
2021/12/22 04:29:25;;;;;;;20.57;8.00;;;;;;;-7.19;60.38;101407.28;126328;1099;104153;-79
2021/12/22 04:31:57;;;;;;;19.03;6.47;;;;;;;-7.13;60.25;101404.56;126308;1099;104739;-78
2021/12/22 04:34:26;;;;;;;22.33;6.93;;;;;;;-7.11;61.27;101409.10;126297;1099;104182;-79
2021/12/22 04:36:54;;;;;;;20.13;6.57;;;;;;;-7.08;61.25;101411.12;126343;1099;104156;-79
2021/12/22 04:39:25;;;;;;;18.63;6.53;;;;;;;-7.06;60.70;101409.66;126273;1099;104153;-79
2021/12/22 04:41:54;;;;;;;24.03;7.17;;;;;;;-7.03;60.62;101411.67;126324;1099;104153;-79
2021/12/22 04:44:22;;;;;;;17.03;7.17;;;;;;;-7.02;59.87;101422.06;126198;1099;104280;-79
2021/12/22 04:46:51;;;;;;;23.20;7.93;;;;;;;-7.01;60.81;101423.89;126313;1099;104608;-79
2021/12/22 04:49:20;;;;;;;21.30;6.73;;;;;;;-7.02;60.00;101416.05;126273;1099;104208;-79
2021/12/22 04:51:51;;;;;;;18.80;6.60;;;;;;;-7.05;60.06;101417.48;126264;1099;104277;-79
2021/12/22 04:54:32;;;;;;;22.33;6.70;;;;;;;-7.07;60.75;101412.95;126284;1099;104254;-79
2021/12/22 04:57:00;;;;;;;22.00;7.27;;;;;;;-7.07;61.47;101418.05;126285;1099;117823;-79
2021/12/22 04:59:31;;;;;;;20.40;7.37;;;;;;;-7.08;61.12;101413.67;126278;1099;104177;-79
2021/12/22 05:02:03;;;;;;;26.07;8.33;;;;;;;-7.10;61.14;101397.28;126327;1099;104150;-79
2021/12/22 05:04:33;;;;;;;22.27;7.07;;;;;;;-7.10;60.45;101404.93;126308;1098;104326;-78
2021/12/22 05:07:01;;;;;;;20.47;7.33;;;;;;;-7.09;61.16;101401.62;126276;1099;104634;-78
2021/12/22 05:09:32;;;;;;;24.07;7.93;;;;;;;-7.07;60.59;101416.41;126331;1099;104374;-78
2021/12/22 05:12:01;;;;;;;25.50;7.73;;;;;;;-7.05;61.24;101411.48;126181;1099;104165;-79
2021/12/22 05:14:32;;;;;;;39.20;8.63;;;;;;;-7.01;61.24;101412.75;126174;1099;104146;-79
2021/12/22 05:17:01;;;;;;;27.27;8.07;;;;;;;-6.98;60.33;101410.56;126189;1099;104200;-79
2021/12/22 05:19:30;;;;;;;29.53;8.83;;;;;;;-6.94;61.34;101415.32;126245;1099;104206;-79
2021/12/22 05:21:58;;;;;;;19.87;6.70;;;;;;;-6.91;61.31;101421.69;126152;1099;104274;-79
2021/12/22 05:24:27;;;;;;;21.63;7.70;;;;;;;-6.88;61.14;101414.41;125982;1099;104150;-79
2021/12/22 05:26:56;;;;;;;24.57;7.37;;;;;;;-6.85;60.27;101411.31;126028;1099;105540;-79
2021/12/22 05:29:24;;;;;;;23.00;6.77;;;;;;;-6.83;61.25;101411.50;126169;1099;104267;-79
2021/12/22 05:31:53;;;;;;;20.05;7.60;;;;;;;-6.81;60.89;101418.59;126175;1099;104159;-79
2021/12/22 05:34:23;;;;;;;21.33;7.23;;;;;;;-6.77;60.39;101420.78;126162;1099;104571;-79
2021/12/22 05:36:55;;;;;;;25.03;7.63;;;;;;;-6.74;60.53;101415.14;125958;1099;104651;-79
2021/12/22 05:39:26;;;;;;;28.20;8.00;;;;;;;-6.72;60.63;101422.23;125857;1099;104185;-79
2021/12/22 05:41:55;;;;;;;19.03;7.23;;;;;;;-6.69;60.42;101424.25;126164;1099;104144;-79
2021/12/22 05:44:24;;;;;;;24.53;8.10;;;;;;;-6.68;60.37;101428.64;126175;1099;104370;-79
2021/12/22 05:46:52;;;;;;;22.33;7.60;;;;;;;-6.63;61.43;101426.63;126137;1098;104214;-78
2021/12/22 05:49:22;;;;;;;24.30;8.20;;;;;;;-6.60;60.74;101425.34;126141;1099;104216;-79
2021/12/22 05:51:52;;;;;;;25.03;8.37;;;;;;;-6.58;61.25;101428.97;126005;1099;104329;-79
2021/12/22 05:54:21;;;;;;;28.00;8.80;;;;;;;-6.54;61.38;101435.38;126138;1099;104166;-78
2021/12/22 05:56:49;;;;;;;24.83;7.47;;;;;;;-6.52;61.00;101434.80;126042;1099;104262;-79
2021/12/22 05:59:19;;;;;;;30.13;8.50;;;;;;;-6.48;60.63;101437.72;126039;1099;104168;-79
2021/12/22 06:01:51;;;;;;;27.27;8.50;;;;;;;-6.42;60.95;101435.89;126063;1099;102682;-79
2021/12/22 06:04:20;;;;;;;30.23;7.53;;;;;;;-6.35;60.32;101433.34;125979;1099;104204;-79
2021/12/22 06:06:48;;;;;;;23.47;7.20;;;;;;;-6.29;61.03;101446.83;125861;1099;104198;-79
2021/12/22 06:09:17;;;;;;;21.43;6.87;;;;;;;-6.23;61.28;101438.95;125863;1099;104297;-79
2021/12/22 06:11:46;;;;;;;17.03;6.07;;;;;;;-6.19;60.79;101444.60;125899;1099;104676;-79
2021/12/22 06:14:15;;;;;;;21.63;6.30;;;;;;;-6.10;60.56;101446.43;125746;1099;104150;-80
2021/12/22 06:16:43;;;;;;;19.30;5.90;;;;;;;-6.01;61.24;101452.62;125760;1098;104146;-79
2021/12/22 06:19:13;;;;;;;13.07;5.27;;;;;;;-5.93;60.50;101451.81;125977;1099;104220;-79
2021/12/22 06:21:42;;;;;;;21.33;5.73;;;;;;;-5.87;60.48;101449.98;125840;1099;104222;-79
2021/12/22 06:24:12;;;;;;;18.53;5.83;;;;;;;-5.79;61.09;101446.65;125816;1099;104370;-80
2021/12/22 06:26:43;;;;;;;16.77;6.27;;;;;;;-5.72;61.14;101457.58;125004;1102;104364;-80
2021/12/22 06:29:12;;;;;;;20.90;6.47;;;;;;;-5.66;60.43;101453.17;126009;1099;103391;-77
2021/12/22 06:31:41;;;;;;;20.67;6.63;;;;;;;-5.58;61.16;101452.41;125940;1099;105586;-79
2021/12/22 06:34:10;;;;;;;17.97;6.30;;;;;;;-5.52;60.42;101458.22;126116;1098;104230;-79
2021/12/22 06:36:38;;;;;;;24.40;6.73;;;;;;;-5.47;60.79;101459.69;126082;1099;102343;-81
2021/12/22 06:39:09;;;;;;;25.93;7.53;;;;;;;-5.39;60.95;101464.74;125019;1099;104175;-80
2021/12/22 06:41:39;;;;;;;21.43;6.73;;;;;;;-5.33;61.07;101473.13;125157;1099;104354;-80
2021/12/22 06:44:07;;;;;;;22.53;6.80;;;;;;;-5.28;60.81;101467.80;125124;1099;104174;-80
2021/12/22 06:46:36;;;;;;;26.80;7.97;;;;;;;-5.19;60.52;101467.02;125089;1099;104140;-79
2021/12/22 06:49:05;;;;;;;21.17;7.33;;;;;;;-5.13;60.88;101470.27;125821;1099;119116;-80
2021/12/22 06:51:35;;;;;;;26.13;8.23;;;;;;;-5.06;60.98;101467.68;125822;1099;104334;-78
2021/12/22 06:54:04;;;;;;;21.17;6.90;;;;;;;-5.02;60.54;101468.92;125204;1099;104162;-79
2021/12/22 06:56:33;;;;;;;20.23;6.80;;;;;;;-4.97;60.63;101472.91;125933;1099;104166;-81
2021/12/22 06:59:02;;;;;;;24.13;7.93;;;;;;;-4.92;60.73;101474.36;125015;1099;104232;-80
2021/12/22 07:01:35;;;;;;;21.45;7.30;;;;;;;-4.85;60.78;101468.27;125096;1099;104339;-80
2021/12/22 07:04:12;;;;;;;21.67;7.83;;;;;;;-4.77;60.79;101468.40;125110;1102;104224;-82
2021/12/22 07:06:44;;;;;;;20.33;6.87;;;;;;;-4.69;60.99;101479.47;125149;1099;104278;-81
2021/12/22 07:09:17;;;;;;;22.20;6.97;;;;;;;-4.64;60.73;101479.98;125745;1099;104205;-80
2021/12/22 07:11:52;;;;;;;18.30;7.03;;;;;;;-4.57;60.93;101479.94;126190;1099;104150;-79
2021/12/22 07:14:40;;;;;;;26.80;7.53;;;;;;;-4.52;60.45;101482.28;126044;1099;104316;-80
2021/12/22 07:17:21;;;;;;;25.67;7.07;;;;;;;-4.48;60.66;101488.64;125920;1099;104178;-82
2021/12/22 07:19:59;;;;;;;22.13;6.77;;;;;;;-4.43;60.67;101479.81;125865;1099;104229;-80
2021/12/22 07:22:41;;;;;;;21.73;6.73;;;;;;;-4.35;60.75;101489.28;125845;1100;104297;-80
2021/12/22 07:25:28;;;;;;;;;;;;;;;;;;;;;
2021/12/22 07:28:02;;;;;;;23.47;8.23;;;;;;;-4.10;60.26;101491.05;125885;1099;104312;-82
2021/12/22 07:30:37;;;;;;;19.27;7.20;;;;;;;-4.02;60.63;101490.23;125877;1099;104293;-81
2021/12/22 07:33:36;;;;;;;23.63;8.13;;;;;;;-3.91;60.30;101491.40;125737;1099;104198;-82
2021/12/22 07:36:14;;;;;;;24.40;8.50;;;;;;;-3.84;60.92;101494.80;125941;1099;104268;-79
2021/12/22 07:38:59;;;;;;;26.43;9.60;;;;;;;-3.81;60.19;101496.80;125884;1099;104169;-80
2021/12/22 07:41:46;;;;;;;26.10;9.10;;;;;;;-3.79;60.37;101502.99;125656;1099;104245;-80
2021/12/22 07:44:25;;;;;;;25.00;9.70;;;;;;;-3.74;59.81;101493.23;125792;1099;104310;-81
2021/12/22 07:47:01;;;;;;;23.20;7.53;;;;;;;-3.62;60.17;101487.77;126026;1099;104326;-80
2021/12/22 07:49:33;;;;;;;23.50;7.73;;;;;;;-3.50;59.89;101477.92;125844;1099;104175;-80
2021/12/22 07:52:07;;;;;;;22.37;7.20;;;;;;;-3.41;60.30;101478.01;125927;1099;102816;-79
2021/12/22 07:54:39;;;;;;;20.00;6.80;;;;;;;-3.33;60.56;101478.83;126043;1099;104162;-78
2021/12/22 07:57:13;;;;;;;20.77;7.93;;;;;;;-3.30;60.21;101476.59;125979;1099;102209;-81
2021/12/22 07:59:50;;;;;;;22.03;7.50;;;;;;;-3.29;59.51;101475.81;125560;1099;104271;-80
2021/12/22 08:02:20;;;;;;;24.37;6.93;;;;;;;-3.33;59.15;101474.59;125149;1099;104347;-78
2021/12/22 08:04:52;;;;;;;19.63;7.73;;;;;;;-3.43;59.42;101482.05;125811;1099;104332;-79
2021/12/22 08:07:21;;;;;;;21.03;7.20;;;;;;;-3.55;59.76;101486.79;125097;1102;104149;-77
2021/12/22 08:09:52;;;;;;;19.50;6.87;;;;;;;-3.59;59.76;101476.94;124964;1102;104332;-77
2021/12/22 08:12:21;;;;;;;17.00;6.33;;;;;;;-3.58;60.03;101481.33;125051;1102;104146;-80
2021/12/22 08:15:02;;;;;;;16.03;6.10;;;;;;;-3.51;60.54;101480.32;125105;1102;104207;-79
2021/12/22 08:17:44;;;;;;;18.83;6.63;;;;;;;-3.44;59.58;101491.41;125022;1102;102503;-78
2021/12/22 08:20:26;;;;;;;16.63;6.07;;;;;;;-3.41;60.35;101490.84;125203;1102;104511;-78
2021/12/22 08:23:06;;;;;;;17.47;6.67;;;;;;;-3.33;59.43;101492.56;125065;1102;104354;-79
2021/12/22 08:25:50;;;;;;;20.07;7.20;;;;;;;-3.29;59.16;101491.22;125226;1102;104297;-79
2021/12/22 08:28:29;;;;;;;15.55;6.65;;;;;;;-3.26;59.25;101486.41;125263;1102;104768;-78
2021/12/22 08:31:13;;;;;;;;;;;;;;;;;;;;;
2021/12/22 08:33:54;;;;;;;21.55;7.08;;;;;;;-3.01;60.10;101492.48;125218;1102;104235;-81
2021/12/22 08:39:27;;;;;;;23.83;7.00;;;;;;;-2.79;58.27;101500.81;125805;1099;104150;-81
2021/12/22 08:42:36;;;;;;;;;;;;;;;;;;;;;
2021/12/22 08:45:09;;;;;;;24.00;7.95;;;;;;;-2.63;58.48;101499.84;126115;1099;104275;-78
2021/12/22 08:47:45;;;;;;;19.07;6.37;;;;;;;-2.57;58.52;101501.37;126250;1099;104268;-79
2021/12/22 08:50:20;;;;;;;20.03;6.87;;;;;;;-2.53;59.16;101503.49;126072;1099;104197;-78
2021/12/22 08:52:50;;;;;;;18.30;7.30;;;;;;;-2.45;59.60;101498.25;126093;1099;104146;-79
2021/12/22 08:55:20;;;;;;;19.57;6.73;;;;;;;-2.39;59.17;101499.78;126072;1099;104333;-78
2021/12/22 08:57:51;;;;;;;18.17;6.97;;;;;;;-2.47;58.74;101499.77;125977;1099;104211;-80
2021/12/22 09:00:21;;;;;;;21.57;7.43;;;;;;;-2.56;58.76;101499.70;125957;1099;104306;-78
2021/12/22 09:03:01;;;;;;;22.87;7.83;;;;;;;-2.63;58.68;101498.17;126041;1099;104198;-80
2021/12/22 09:05:48;;;;;;;23.57;7.80;;;;;;;-2.71;58.17;101510.22;125974;1099;104904;-81
2021/12/22 09:08:18;;;;;;;18.60;7.20;;;;;;;-2.70;58.80;101500.84;126189;1099;104198;-79
2021/12/22 09:10:53;;;;;;;21.50;8.10;;;;;;;-2.63;58.88;101495.60;126231;1099;104136;-78
2021/12/22 09:13:36;;;;;;;22.70;8.77;;;;;;;-2.42;58.14;101498.56;126039;1099;104230;-79
2021/12/22 09:16:07;;;;;;;23.80;8.67;;;;;;;-2.29;59.68;101495.59;125905;1099;104236;-78
2021/12/22 09:18:45;;;;;;;22.10;8.40;;;;;;;-2.19;58.37;101494.13;125990;1099;104189;-78
2021/12/22 09:21:21;;;;;;;23.43;8.90;;;;;;;-2.18;58.53;101495.95;126119;1099;104230;-79
2021/12/22 09:23:51;;;;;;;22.23;8.27;;;;;;;-2.11;58.25;101494.00;126179;1099;104143;-78
2021/12/22 09:26:25;;;;;;;21.67;8.07;;;;;;;-2.06;57.68;101487.66;125957;1099;104198;-79
2021/12/22 09:32:01;;;;;;;21.00;8.00;;;;;;;-2.08;57.97;101491.75;125764;1099;104145;-79
2021/12/22 09:34:36;;;;;;;22.23;7.97;;;;;;;-2.08;57.88;101477.21;125869;1099;104226;-80
2021/12/22 09:37:08;;;;;;;22.45;8.60;;;;;;;-2.12;57.61;101461.31;125913;1099;104663;-81
2021/12/22 09:39:50;;;;;;;;;;;;;;;;;;;;;
2021/12/22 09:42:47;;;;;;;20.97;8.00;;;;;;;-2.07;57.66;101468.75;125852;1099;107791;-80
2021/12/22 09:45:41;;;;;;;;;;;;;;;;;;;;;
2021/12/22 09:48:36;;;;;;;18.27;7.17;;;;;;;-1.97;58.29;101468.02;126297;1099;104144;-81
2021/12/22 09:54:06;;;;;;;21.43;7.63;;;;;;;-2.05;58.06;101482.67;125599;1099;104300;-80
2021/12/22 09:56:46;;;;;;;19.83;8.13;;;;;;;-2.02;57.89;101479.52;125783;1099;104176;-80
2021/12/22 09:59:23;;;;;;;18.77;7.47;;;;;;;-1.97;58.30;101478.30;125173;1100;104003;-80
2021/12/22 10:01:52;;;;;;;21.47;7.70;;;;;;;-2.12;58.54;101480.25;125883;1099;104201;-79
2021/12/22 10:04:24;;;;;;;20.27;7.97;;;;;;;-2.26;58.53;101476.27;125896;1099;104194;-79
2021/12/22 10:07:00;;;;;;;22.70;8.07;;;;;;;-2.26;57.42;101480.48;125670;1099;104431;-81
2021/12/22 10:09:53;;;;;;;25.27;8.50;;;;;;;-2.24;57.97;101478.99;125375;1099;104194;-80
2021/12/22 10:12:26;;;;;;;19.17;7.80;;;;;;;-2.23;57.28;101481.72;125352;1099;104284;-81
2021/12/22 10:15:08;;;;;;;23.63;8.57;;;;;;;-2.06;57.90;101480.84;125155;1099;104348;-78
2021/12/22 10:17:40;;;;;;;27.33;8.53;;;;;;;-1.91;57.83;101473.78;125120;1099;104364;-79
2021/12/22 10:20:13;;;;;;;24.27;8.87;;;;;;;-1.83;57.75;101467.73;125080;1099;104287;-79
2021/12/22 10:22:48;;;;;;;25.17;7.83;;;;;;;-1.77;57.78;101467.45;125256;1100;104249;-78
2021/12/22 10:25:21;;;;;;;21.93;8.03;;;;;;;-1.71;57.91;101480.93;125887;1099;104341;-78
2021/12/22 10:28:03;;;;;;;22.43;8.53;;;;;;;-1.67;57.67;101464.13;125790;1099;104326;-79
2021/12/22 10:30:37;;;;;;;21.13;8.53;;;;;;;-1.60;57.53;101476.86;126021;1099;104203;-78
2021/12/22 10:33:10;;;;;;;21.57;7.93;;;;;;;-1.66;57.19;101474.56;125282;1099;104217;-79
2021/12/22 10:35:53;;;;;;;22.50;9.30;;;;;;;-1.74;57.18;101478.05;125087;1099;104216;-80
2021/12/22 10:38:38;;;;;;;20.82;7.85;;;;;;;-1.78;57.43;101480.16;125625;1099;104155;-79
2021/12/22 10:41:12;;;;;;;24.93;8.37;;;;;;;-1.84;57.55;101465.00;126050;1099;104830;-80
2021/12/22 10:43:48;;;;;;;24.70;8.90;;;;;;;-1.86;57.29;101471.67;125987;1099;104277;-78
2021/12/22 10:46:27;;;;;;;25.00;9.20;;;;;;;-1.89;57.39;101472.26;126082;1099;104140;-79
2021/12/22 10:49:21;;;;;;;25.17;9.90;;;;;;;-1.94;57.62;101465.75;126235;1099;104213;-79
2021/12/22 10:51:59;;;;;;;20.80;8.03;;;;;;;-1.88;57.08;101468.05;125891;1099;104337;-81
2021/12/22 10:54:36;;;;;;;20.40;7.80;;;;;;;-1.92;56.42;101474.52;125946;1099;104159;-80
2021/12/22 10:57:11;;;;;;;24.37;9.83;;;;;;;-1.88;57.46;101461.22;126090;1098;104322;-77
2021/12/22 11:00:04;;;;;;;23.50;8.87;;;;;;;-1.90;57.35;101467.89;125906;1099;104238;-79
2021/12/22 11:02:49;;;;;;;21.13;7.93;;;;;;;-1.91;57.09;101473.78;125758;1099;104191;-79
2021/12/22 11:05:30;;;;;;;21.80;8.67;;;;;;;-1.97;57.70;101475.73;125173;1100;104214;-80
2021/12/22 11:08:26;;;;;;;20.17;7.67;;;;;;;-1.96;57.10;101469.84;125632;1099;104145;-79
2021/12/22 11:11:05;;;;;;;24.07;8.70;;;;;;;-1.91;57.49;101460.91;125856;1099;104165;-79
2021/12/22 11:13:37;;;;;;;22.73;8.37;;;;;;;-1.76;57.43;101465.77;125614;1099;104287;-80
2021/12/22 11:16:25;;;;;;;22.63;9.10;;;;;;;-1.63;57.30;101458.53;125164;1102;104181;-80
2021/12/22 11:19:15;;;;;;;23.73;9.27;;;;;;;-1.51;57.52;101443.37;125830;1099;104139;-81
2021/12/22 11:21:58;;;;;;;22.53;8.80;;;;;;;-1.43;57.56;101459.58;125810;1099;102176;-79
2021/12/22 11:24:30;;;;;;;24.07;9.73;;;;;;;-1.52;57.09;101451.88;125669;1099;104171;-80
2021/12/22 11:27:04;;;;;;;23.80;9.80;;;;;;;-1.56;57.45;101449.75;125700;1099;104303;-80
2021/12/22 11:29:42;;;;;;;24.77;9.63;;;;;;;-1.59;57.52;101458.09;125683;1099;104293;-80
2021/12/22 11:32:17;;;;;;;25.97;9.90;;;;;;;-1.70;57.36;101459.59;125871;1099;104169;-79
2021/12/22 11:38:08;;;;;;;24.27;10.07;;;;;;;-1.74;58.04;101443.70;125772;1099;104764;-81
2021/12/22 11:44:13;;;;;;;25.03;10.20;;;;;;;-1.68;57.83;101452.03;125657;1099;103598;-78
2021/12/22 11:46:49;;;;;;;32.13;11.07;;;;;;;-1.72;57.87;101447.33;125164;1102;104156;-80
2021/12/22 11:49:40;;;;;;;26.40;9.73;;;;;;;-1.75;57.52;101454.73;125932;1099;104631;-82
2021/12/22 11:52:42;;;;;;;28.13;10.53;;;;;;;-1.82;57.15;101456.70;126008;1099;104213;-80
2021/12/22 11:55:22;;;;;;;26.80;10.37;;;;;;;-1.89;57.12;101454.25;126016;1099;118769;-80
2021/12/22 11:58:11;;;;;;;27.37;10.28;;;;;;;-1.93;57.56;101452.14;125828;1099;104152;-83